LOT7VA EPWA-LSZH
Flight info
| Callsign | LOT7VA |
|---|---|
| Flight time | 1h 34m |
| Altitude | 40000 |
| Route | SOXER DCT VAMPU N869 AGALU DCT TOMTI DCT ASTEL DCT OKG DCT AMOSA N869 TEDGO/N0444F390 T724 RILAX |
| Aircraft | B38M/M-SDE1FGHILORVWXY/HB1 |
Departure
| Time | 2026-05-04 19:41 |
|---|---|
| Airport | Warsaw Chopin Airport (EPWA) |
Arrival
| Time | 2026-05-04 21:15 |
|---|---|
| Airport | Zürich Airport (LSZH) |
| Time | Latitude | Longitude | Altitude | Speed | Heading |
|---|---|---|---|---|---|
| 2026-05-04 18:59 | 52.17412 | 20.97027 | 336 ft | 0 kts | 242° |
| 2026-05-04 19:28 | 52.17417 | 20.97042 | 336 ft | 2 kts | 240° |
| 2026-05-04 19:28 | 52.17425 | 20.97066 | 338 ft | 2 kts | 243° |
| 2026-05-04 19:28 | 52.17432 | 20.97090 | 340 ft | 2 kts | 249° |
| 2026-05-04 19:29 | 52.17432 | 20.97114 | 339 ft | 1 kts | 328° |
| 2026-05-04 19:29 | 52.17430 | 20.97116 | 341 ft | 0 kts | 335° |
| 2026-05-04 19:32 | 52.17431 | 20.97115 | 341 ft | 0 kts | 331° |
| 2026-05-04 19:32 | 52.17435 | 20.97111 | 339 ft | 3 kts | 331° |
| 2026-05-04 19:32 | 52.17492 | 20.97061 | 341 ft | 16 kts | 331° |
| 2026-05-04 19:33 | 52.17618 | 20.96933 | 350 ft | 19 kts | 300° |
| 2026-05-04 19:33 | 52.17567 | 20.96734 | 338 ft | 21 kts | 239° |
| 2026-05-04 19:33 | 52.17486 | 20.96570 | 339 ft | 16 kts | 187° |
| 2026-05-04 19:33 | 52.17383 | 20.96642 | 340 ft | 17 kts | 152° |
| 2026-05-04 19:34 | 52.17268 | 20.96743 | 338 ft | 20 kts | 152° |
| 2026-05-04 19:34 | 52.17142 | 20.96853 | 338 ft | 22 kts | 152° |
| 2026-05-04 19:34 | 52.17005 | 20.96974 | 337 ft | 24 kts | 152° |
| 2026-05-04 19:34 | 52.16855 | 20.97104 | 339 ft | 26 kts | 152° |
| 2026-05-04 19:35 | 52.16695 | 20.97243 | 338 ft | 27 kts | 152° |
| 2026-05-04 19:35 | 52.16572 | 20.97382 | 341 ft | 15 kts | 117° |
| 2026-05-04 19:35 | 52.16524 | 20.97549 | 339 ft | 17 kts | 114° |
| 2026-05-04 19:35 | 52.16471 | 20.97739 | 338 ft | 20 kts | 114° |
| 2026-05-04 19:36 | 52.16398 | 20.97791 | 341 ft | 8 kts | 205° |
| 2026-05-04 19:36 | 52.16341 | 20.97748 | 337 ft | 11 kts | 205° |
| 2026-05-04 19:36 | 52.16307 | 20.97679 | 339 ft | 8 kts | 274° |
| 2026-05-04 19:36 | 52.16321 | 20.97617 | 337 ft | 0 kts | 295° |
| 2026-05-04 19:40 | 52.16321 | 20.97616 | 340 ft | 2 kts | 295° |
| 2026-05-04 19:40 | 52.16430 | 20.97228 | 340 ft | 77 kts | 295° |
| 2026-05-04 19:40 | 52.16754 | 20.96076 | 347 ft | 144 kts | 294° |
| 2026-05-04 19:40 | 52.17214 | 20.94398 | 704 ft | 171 kts | 294° |
| 2026-05-04 19:41 | 52.17703 | 20.92678 | 1611 ft | 163 kts | 292° |
| 2026-05-04 19:41 | 52.18165 | 20.90992 | 2423 ft | 166 kts | 288° |
| 2026-05-04 19:41 | 52.18455 | 20.89103 | 3095 ft | 179 kts | 273° |
| 2026-05-04 19:41 | 52.18324 | 20.87019 | 3746 ft | 193 kts | 255° |
| 2026-05-04 19:42 | 52.17979 | 20.84842 | 4377 ft | 209 kts | 255° |
| 2026-05-04 19:42 | 52.17616 | 20.82463 | 5002 ft | 225 kts | 255° |
| 2026-05-04 19:42 | 52.17235 | 20.79912 | 5592 ft | 240 kts | 256° |
| 2026-05-04 19:42 | 52.16842 | 20.77250 | 6475 ft | 240 kts | 256° |
| 2026-05-04 19:43 | 52.16455 | 20.74605 | 7330 ft | 241 kts | 256° |
| 2026-05-04 19:43 | 52.16062 | 20.71939 | 8113 ft | 244 kts | 254° |
| 2026-05-04 19:43 | 52.15541 | 20.69259 | 8965 ft | 251 kts | 251° |
| 2026-05-04 19:43 | 52.15003 | 20.66560 | 9987 ft | 253 kts | 251° |
| 2026-05-04 19:44 | 52.14458 | 20.63800 | 10664 ft | 267 kts | 251° |
| 2026-05-04 19:44 | 52.13874 | 20.60828 | 11217 ft | 285 kts | 252° |
| 2026-05-04 19:44 | 52.13255 | 20.57669 | 11786 ft | 301 kts | 252° |
| 2026-05-04 19:44 | 52.12608 | 20.54369 | 12519 ft | 310 kts | 251° |
| 2026-05-04 19:45 | 52.11952 | 20.51025 | 13536 ft | 310 kts | 251° |
| 2026-05-04 19:45 | 52.11291 | 20.47657 | 14361 ft | 315 kts | 251° |
| 2026-05-04 19:45 | 52.10618 | 20.44231 | 15145 ft | 320 kts | 251° |
| 2026-05-04 19:45 | 52.09934 | 20.40759 | 15936 ft | 325 kts | 251° |
| 2026-05-04 19:46 | 52.09239 | 20.37236 | 16704 ft | 330 kts | 251° |
| 2026-05-04 19:46 | 52.08531 | 20.33658 | 17462 ft | 335 kts | 251° |
| 2026-05-04 19:46 | 52.07824 | 20.30089 | 18214 ft | 339 kts | 252° |
| 2026-05-04 19:46 | 52.07094 | 20.26409 | 18854 ft | 343 kts | 252° |
| 2026-05-04 19:47 | 52.06356 | 20.22699 | 19521 ft | 347 kts | 252° |
| 2026-05-04 19:47 | 52.05611 | 20.18954 | 20168 ft | 350 kts | 252° |
| 2026-05-04 19:47 | 52.04855 | 20.15172 | 20798 ft | 354 kts | 252° |
| 2026-05-04 19:47 | 52.04095 | 20.11369 | 21513 ft | 354 kts | 252° |
| 2026-05-04 19:48 | 52.03332 | 20.07564 | 22286 ft | 353 kts | 252° |
| 2026-05-04 19:48 | 52.02573 | 20.03781 | 23086 ft | 352 kts | 252° |
| 2026-05-04 19:48 | 52.01820 | 20.00042 | 23597 ft | 358 kts | 252° |
| 2026-05-04 19:48 | 52.01031 | 19.96125 | 23803 ft | 371 kts | 252° |
| 2026-05-04 19:49 | 52.00222 | 19.92122 | 24263 ft | 374 kts | 252° |
| 2026-05-04 19:49 | 51.99412 | 19.88119 | 24808 ft | 376 kts | 252° |
| 2026-05-04 19:49 | 51.98588 | 19.84056 | 25275 ft | 379 kts | 252° |
| 2026-05-04 19:49 | 51.97768 | 19.80024 | 25784 ft | 381 kts | 252° |
| 2026-05-04 19:50 | 51.96934 | 19.75925 | 26256 ft | 384 kts | 252° |
| 2026-05-04 19:50 | 51.96092 | 19.71799 | 26737 ft | 387 kts | 252° |
| 2026-05-04 19:50 | 51.95245 | 19.67657 | 27199 ft | 389 kts | 252° |
| 2026-05-04 19:50 | 51.94389 | 19.63480 | 27668 ft | 392 kts | 252° |
| 2026-05-04 19:51 | 51.93528 | 19.59288 | 28117 ft | 394 kts | 252° |
| 2026-05-04 19:51 | 51.92656 | 19.55047 | 28562 ft | 397 kts | 252° |
| 2026-05-04 19:51 | 51.91792 | 19.50859 | 29000 ft | 399 kts | 252° |
| 2026-05-04 19:51 | 51.90897 | 19.46526 | 29431 ft | 402 kts | 252° |
| 2026-05-04 19:52 | 51.90004 | 19.42217 | 29855 ft | 404 kts | 252° |
| 2026-05-04 19:52 | 51.89107 | 19.37896 | 30222 ft | 407 kts | 252° |
| 2026-05-04 19:52 | 51.88201 | 19.33539 | 30582 ft | 409 kts | 252° |
| 2026-05-04 19:52 | 51.87303 | 19.29232 | 30948 ft | 410 kts | 252° |
| 2026-05-04 19:53 | 51.86388 | 19.24850 | 31313 ft | 412 kts | 252° |
| 2026-05-04 19:53 | 51.85465 | 19.20441 | 31666 ft | 414 kts | 252° |
| 2026-05-04 19:53 | 51.84536 | 19.16016 | 32008 ft | 416 kts | 252° |
| 2026-05-04 19:53 | 51.83603 | 19.11580 | 32352 ft | 418 kts | 252° |
| 2026-05-04 19:54 | 51.82664 | 19.07122 | 32687 ft | 420 kts | 252° |
| 2026-05-04 19:54 | 51.81720 | 19.02655 | 33018 ft | 422 kts | 252° |
| 2026-05-04 19:54 | 51.80770 | 18.98168 | 33394 ft | 422 kts | 252° |
| 2026-05-04 19:54 | 51.79831 | 18.93740 | 33864 ft | 421 kts | 252° |
| 2026-05-04 19:55 | 51.78882 | 18.89279 | 34311 ft | 419 kts | 252° |
| 2026-05-04 19:55 | 51.77935 | 18.84836 | 34644 ft | 419 kts | 252° |
| 2026-05-04 19:55 | 51.76985 | 18.80386 | 34969 ft | 419 kts | 252° |
| 2026-05-04 19:55 | 51.76034 | 18.75942 | 35309 ft | 419 kts | 252° |
| 2026-05-04 19:56 | 51.75080 | 18.71497 | 35652 ft | 419 kts | 252° |
| 2026-05-04 19:56 | 51.74126 | 18.67058 | 35959 ft | 419 kts | 252° |
| 2026-05-04 19:56 | 51.73168 | 18.62613 | 36269 ft | 419 kts | 252° |
| 2026-05-04 19:56 | 51.72222 | 18.58232 | 36572 ft | 419 kts | 252° |
| 2026-05-04 19:57 | 51.71263 | 18.53797 | 36879 ft | 419 kts | 252° |
| 2026-05-04 19:57 | 51.70300 | 18.49354 | 37166 ft | 419 kts | 252° |
| 2026-05-04 19:57 | 51.69337 | 18.44925 | 37443 ft | 419 kts | 252° |
| 2026-05-04 19:57 | 51.68371 | 18.40489 | 37715 ft | 419 kts | 252° |
| 2026-05-04 19:58 | 51.67403 | 18.36053 | 37996 ft | 419 kts | 251° |
| 2026-05-04 19:58 | 51.66435 | 18.31628 | 38282 ft | 419 kts | 251° |
| 2026-05-04 19:58 | 51.65466 | 18.27204 | 38537 ft | 419 kts | 251° |
| 2026-05-04 19:58 | 51.64494 | 18.22783 | 38744 ft | 419 kts | 251° |
| 2026-05-04 19:59 | 51.63520 | 18.18356 | 38898 ft | 420 kts | 251° |
| 2026-05-04 19:59 | 51.62543 | 18.13927 | 39059 ft | 420 kts | 251° |
| 2026-05-04 19:59 | 51.61578 | 18.09560 | 39223 ft | 420 kts | 251° |
| 2026-05-04 19:59 | 51.60596 | 18.05129 | 39393 ft | 421 kts | 251° |
| 2026-05-04 20:00 | 51.59610 | 18.00689 | 39533 ft | 421 kts | 251° |
| 2026-05-04 20:00 | 51.58622 | 17.96248 | 39682 ft | 422 kts | 251° |
| 2026-05-04 20:00 | 51.57634 | 17.91813 | 39826 ft | 422 kts | 251° |
| 2026-05-04 20:01 | 51.55646 | 17.82928 | 39930 ft | 422 kts | 251° |
| 2026-05-04 20:01 | 51.53669 | 17.74120 | 39938 ft | 421 kts | 251° |
| 2026-05-04 20:02 | 51.51676 | 17.65288 | 39942 ft | 421 kts | 251° |
| 2026-05-04 20:02 | 51.49675 | 17.56452 | 39937 ft | 421 kts | 251° |
| 2026-05-04 20:03 | 51.47669 | 17.47632 | 39941 ft | 420 kts | 251° |
| 2026-05-04 20:03 | 51.45667 | 17.38870 | 39940 ft | 420 kts | 251° |
| 2026-05-04 20:04 | 51.43656 | 17.30102 | 39942 ft | 420 kts | 251° |
| 2026-05-04 20:04 | 51.41635 | 17.21322 | 39933 ft | 420 kts | 251° |
| 2026-05-04 20:05 | 51.39609 | 17.12560 | 39939 ft | 420 kts | 251° |
| 2026-05-04 20:05 | 51.37575 | 17.03804 | 39939 ft | 420 kts | 250° |
| 2026-05-04 20:06 | 51.35547 | 16.95107 | 39935 ft | 420 kts | 250° |
| 2026-05-04 20:06 | 51.33501 | 16.86363 | 39931 ft | 420 kts | 250° |
| 2026-05-04 20:07 | 51.31447 | 16.77627 | 39935 ft | 420 kts | 250° |
| 2026-05-04 20:07 | 51.29399 | 16.68950 | 39931 ft | 420 kts | 250° |
| 2026-05-04 20:08 | 51.27337 | 16.60244 | 39934 ft | 420 kts | 250° |
| 2026-05-04 20:08 | 51.25261 | 16.51521 | 39938 ft | 420 kts | 250° |
| 2026-05-04 20:09 | 51.23184 | 16.42826 | 39938 ft | 419 kts | 250° |
| 2026-05-04 20:09 | 51.21101 | 16.34141 | 39931 ft | 419 kts | 250° |
| 2026-05-04 20:10 | 51.19026 | 16.25521 | 39935 ft | 419 kts | 250° |
| 2026-05-04 20:10 | 51.16931 | 16.16856 | 39939 ft | 419 kts | 250° |
| 2026-05-04 20:11 | 51.14833 | 16.08212 | 39942 ft | 418 kts | 250° |
| 2026-05-04 20:11 | 51.12729 | 15.99578 | 39942 ft | 418 kts | 250° |
| 2026-05-04 20:12 | 51.10638 | 15.91026 | 39940 ft | 418 kts | 250° |
| 2026-05-04 20:12 | 51.08524 | 15.82418 | 39941 ft | 418 kts | 250° |
| 2026-05-04 20:13 | 51.06404 | 15.73815 | 39947 ft | 417 kts | 249° |
| 2026-05-04 20:13 | 51.04279 | 15.65230 | 39950 ft | 417 kts | 249° |
| 2026-05-04 20:14 | 51.02164 | 15.56716 | 39950 ft | 417 kts | 249° |
| 2026-05-04 20:14 | 51.00031 | 15.48165 | 39953 ft | 417 kts | 249° |
| 2026-05-04 20:15 | 50.97891 | 15.39615 | 39961 ft | 417 kts | 249° |
| 2026-05-04 20:15 | 50.95746 | 15.31076 | 39947 ft | 416 kts | 250° |
| 2026-05-04 20:16 | 50.93980 | 15.22418 | 39943 ft | 416 kts | 252° |
| 2026-05-04 20:16 | 50.92192 | 15.13684 | 39947 ft | 416 kts | 252° |
| 2026-05-04 20:17 | 50.90390 | 15.04986 | 39958 ft | 416 kts | 252° |
| 2026-05-04 20:17 | 50.88575 | 14.96265 | 39950 ft | 416 kts | 252° |
| 2026-05-04 20:18 | 50.86757 | 14.87577 | 39959 ft | 417 kts | 251° |
| 2026-05-04 20:18 | 50.84318 | 14.79242 | 39933 ft | 417 kts | 245° |
| 2026-05-04 20:19 | 50.81784 | 14.71048 | 39950 ft | 417 kts | 244° |
| 2026-05-04 20:19 | 50.79218 | 14.62825 | 39944 ft | 418 kts | 244° |
| 2026-05-04 20:20 | 50.76638 | 14.54589 | 39956 ft | 418 kts | 244° |
| 2026-05-04 20:20 | 50.74056 | 14.46372 | 39954 ft | 418 kts | 244° |
| 2026-05-04 20:21 | 50.71464 | 14.38154 | 39951 ft | 418 kts | 244° |
| 2026-05-04 20:21 | 50.67647 | 14.26098 | 39959 ft | 419 kts | 244° |
| 2026-05-04 20:22 | 50.65038 | 14.17891 | 39950 ft | 419 kts | 244° |
| 2026-05-04 20:22 | 50.62422 | 14.09690 | 39947 ft | 419 kts | 244° |
| 2026-05-04 20:23 | 50.59800 | 14.01499 | 39958 ft | 419 kts | 244° |
| 2026-05-04 20:23 | 50.57174 | 13.93319 | 39956 ft | 419 kts | 244° |
| 2026-05-04 20:24 | 50.54558 | 13.85199 | 39963 ft | 419 kts | 243° |
| 2026-05-04 20:24 | 50.51923 | 13.77047 | 39959 ft | 419 kts | 243° |
| 2026-05-04 20:25 | 50.49278 | 13.68892 | 39955 ft | 419 kts | 243° |
| 2026-05-04 20:25 | 50.46633 | 13.60763 | 39967 ft | 418 kts | 243° |
| 2026-05-04 20:26 | 50.43984 | 13.52645 | 39965 ft | 418 kts | 243° |
| 2026-05-04 20:26 | 50.41344 | 13.44583 | 39947 ft | 418 kts | 243° |
| 2026-05-04 20:27 | 50.38687 | 13.36497 | 39953 ft | 417 kts | 243° |
| 2026-05-04 20:27 | 50.36024 | 13.28416 | 39953 ft | 417 kts | 243° |
| 2026-05-04 20:28 | 50.33375 | 13.20403 | 39962 ft | 417 kts | 243° |
| 2026-05-04 20:28 | 50.30707 | 13.12359 | 39972 ft | 417 kts | 243° |
| 2026-05-04 20:29 | 50.28028 | 13.04308 | 39972 ft | 417 kts | 243° |
| 2026-05-04 20:29 | 50.25346 | 12.96274 | 39954 ft | 417 kts | 243° |
| 2026-05-04 20:30 | 50.22658 | 12.88249 | 39962 ft | 417 kts | 242° |
| 2026-05-04 20:30 | 50.19967 | 12.80238 | 39968 ft | 417 kts | 242° |
| 2026-05-04 20:31 | 50.17294 | 12.72308 | 39955 ft | 417 kts | 242° |
| 2026-05-04 20:31 | 50.14580 | 12.64279 | 39958 ft | 417 kts | 242° |
| 2026-05-04 20:32 | 50.11873 | 12.56292 | 39956 ft | 417 kts | 242° |
| 2026-05-04 20:32 | 50.09181 | 12.48369 | 39962 ft | 417 kts | 242° |
| 2026-05-04 20:33 | 50.06469 | 12.40403 | 39946 ft | 417 kts | 242° |
| 2026-05-04 20:33 | 50.03764 | 12.32417 | 39950 ft | 417 kts | 242° |
| 2026-05-04 20:34 | 50.01054 | 12.24434 | 39945 ft | 417 kts | 242° |
| 2026-05-04 20:34 | 49.98361 | 12.16526 | 39945 ft | 417 kts | 242° |
| 2026-05-04 20:35 | 49.95649 | 12.08586 | 39972 ft | 417 kts | 242° |
| 2026-05-04 20:35 | 49.92923 | 12.00629 | 39966 ft | 417 kts | 242° |
| 2026-05-04 20:36 | 49.90191 | 11.92681 | 39972 ft | 417 kts | 242° |
| 2026-05-04 20:36 | 49.87458 | 11.84754 | 39987 ft | 417 kts | 242° |
| 2026-05-04 20:37 | 49.84736 | 11.76886 | 39986 ft | 417 kts | 242° |
| 2026-05-04 20:37 | 49.81991 | 11.68971 | 39970 ft | 417 kts | 241° |
| 2026-05-04 20:38 | 49.79239 | 11.61064 | 39966 ft | 417 kts | 241° |
| 2026-05-04 20:38 | 49.76485 | 11.53173 | 39964 ft | 417 kts | 241° |
| 2026-05-04 20:39 | 49.73749 | 11.45359 | 39946 ft | 416 kts | 241° |
| 2026-05-04 20:39 | 49.70989 | 11.37502 | 39947 ft | 416 kts | 241° |
| 2026-05-04 20:40 | 49.68224 | 11.29654 | 39937 ft | 416 kts | 241° |
| 2026-05-04 20:40 | 49.65453 | 11.21812 | 39932 ft | 416 kts | 241° |
| 2026-05-04 20:41 | 49.62682 | 11.13994 | 39948 ft | 415 kts | 241° |
| 2026-05-04 20:41 | 49.59998 | 11.06446 | 39941 ft | 415 kts | 240° |
| 2026-05-04 20:42 | 49.57216 | 10.98642 | 39933 ft | 415 kts | 240° |
| 2026-05-04 20:42 | 49.54454 | 10.90913 | 39934 ft | 415 kts | 240° |
| 2026-05-04 20:43 | 49.51645 | 10.83099 | 39933 ft | 415 kts | 238° |
| 2026-05-04 20:43 | 49.49900 | 10.79656 | 39939 ft | 413 kts | 225° |
| 2026-05-04 20:43 | 49.47900 | 10.76493 | 39949 ft | 414 kts | 227° |
| 2026-05-04 20:44 | 49.43903 | 10.70066 | 39969 ft | 415 kts | 226° |
| 2026-05-04 20:44 | 49.39908 | 10.63661 | 39975 ft | 416 kts | 226° |
| 2026-05-04 20:45 | 49.35919 | 10.57231 | 39981 ft | 416 kts | 226° |
| 2026-05-04 20:45 | 49.31869 | 10.50975 | 39980 ft | 416 kts | 225° |
| 2026-05-04 20:46 | 49.27785 | 10.44699 | 39987 ft | 417 kts | 225° |
| 2026-05-04 20:46 | 49.23693 | 10.38410 | 39990 ft | 417 kts | 225° |
| 2026-05-04 20:47 | 49.19620 | 10.32092 | 39981 ft | 417 kts | 225° |
| 2026-05-04 20:47 | 49.15565 | 10.25825 | 39985 ft | 418 kts | 225° |
| 2026-05-04 20:48 | 49.11877 | 10.18993 | 39981 ft | 418 kts | 231° |
| 2026-05-04 20:48 | 49.08231 | 10.12076 | 39986 ft | 418 kts | 231° |
| 2026-05-04 20:49 | 49.04563 | 10.05186 | 39997 ft | 419 kts | 231° |
| 2026-05-04 20:49 | 49.00881 | 9.98297 | 39997 ft | 419 kts | 230° |
| 2026-05-04 20:50 | 48.97216 | 9.91456 | 39996 ft | 420 kts | 230° |
| 2026-05-04 20:50 | 48.93531 | 9.84595 | 39992 ft | 420 kts | 230° |
| 2026-05-04 20:51 | 48.89825 | 9.77713 | 39989 ft | 420 kts | 230° |
| 2026-05-04 20:51 | 48.86136 | 9.70839 | 39985 ft | 420 kts | 230° |
| 2026-05-04 20:52 | 48.82469 | 9.64010 | 39980 ft | 420 kts | 230° |
| 2026-05-04 20:52 | 48.78776 | 9.57152 | 39963 ft | 420 kts | 230° |
| 2026-05-04 20:53 | 48.75069 | 9.50285 | 39977 ft | 420 kts | 230° |
| 2026-05-04 20:53 | 48.71359 | 9.43429 | 39959 ft | 420 kts | 230° |
| 2026-05-04 20:54 | 48.67677 | 9.36644 | 39964 ft | 423 kts | 230° |
| 2026-05-04 20:54 | 48.63844 | 9.29814 | 39150 ft | 430 kts | 222° |
| 2026-05-04 20:55 | 48.61388 | 9.27228 | 38445 ft | 430 kts | 206° |
| 2026-05-04 20:55 | 48.58596 | 9.25789 | 38242 ft | 419 kts | 193° |
| 2026-05-04 20:55 | 48.55784 | 9.24912 | 37942 ft | 411 kts | 193° |
| 2026-05-04 20:55 | 48.52965 | 9.24147 | 37279 ft | 410 kts | 191° |
| 2026-05-04 20:56 | 48.50208 | 9.23478 | 36840 ft | 402 kts | 191° |
| 2026-05-04 20:56 | 48.47467 | 9.22846 | 36059 ft | 397 kts | 191° |
| 2026-05-04 20:56 | 48.44750 | 9.22241 | 35327 ft | 392 kts | 190° |
| 2026-05-04 20:56 | 48.42077 | 9.21659 | 34694 ft | 384 kts | 190° |
| 2026-05-04 20:57 | 48.39442 | 9.21091 | 34007 ft | 380 kts | 190° |
| 2026-05-04 20:57 | 48.36848 | 9.20533 | 33296 ft | 373 kts | 190° |
| 2026-05-04 20:57 | 48.34305 | 9.19988 | 32572 ft | 367 kts | 190° |
| 2026-05-04 20:57 | 48.31792 | 9.19450 | 31860 ft | 362 kts | 190° |
| 2026-05-04 20:58 | 48.29351 | 9.18927 | 31166 ft | 357 kts | 190° |
| 2026-05-04 20:58 | 48.26910 | 9.18406 | 30493 ft | 352 kts | 189° |
| 2026-05-04 20:58 | 48.24504 | 9.17892 | 29785 ft | 347 kts | 189° |
| 2026-05-04 20:58 | 48.22132 | 9.17385 | 29006 ft | 343 kts | 189° |
| 2026-05-04 20:59 | 48.19771 | 9.16881 | 28223 ft | 340 kts | 189° |
| 2026-05-04 20:59 | 48.17441 | 9.16385 | 27464 ft | 337 kts | 189° |
| 2026-05-04 20:59 | 48.15126 | 9.15892 | 26735 ft | 334 kts | 189° |
| 2026-05-04 20:59 | 48.12836 | 9.15405 | 26028 ft | 332 kts | 189° |
| 2026-05-04 21:00 | 48.10560 | 9.14922 | 25354 ft | 329 kts | 190° |
| 2026-05-04 21:00 | 48.08301 | 9.14443 | 24675 ft | 326 kts | 190° |
| 2026-05-04 21:00 | 48.06096 | 9.13975 | 24038 ft | 324 kts | 190° |
| 2026-05-04 21:00 | 48.03874 | 9.13504 | 23366 ft | 322 kts | 190° |
| 2026-05-04 21:01 | 48.01666 | 9.13037 | 22637 ft | 319 kts | 190° |
| 2026-05-04 21:01 | 47.99478 | 9.12574 | 21928 ft | 316 kts | 190° |
| 2026-05-04 21:01 | 47.97311 | 9.12117 | 21233 ft | 314 kts | 190° |
| 2026-05-04 21:01 | 47.95157 | 9.11662 | 20555 ft | 311 kts | 190° |
| 2026-05-04 21:02 | 47.93017 | 9.11210 | 19906 ft | 309 kts | 190° |
| 2026-05-04 21:02 | 47.90895 | 9.10764 | 19248 ft | 307 kts | 190° |
| 2026-05-04 21:02 | 47.88819 | 9.10326 | 18628 ft | 305 kts | 190° |
| 2026-05-04 21:02 | 47.86721 | 9.09884 | 17974 ft | 303 kts | 190° |
| 2026-05-04 21:03 | 47.84641 | 9.09447 | 17328 ft | 299 kts | 190° |
| 2026-05-04 21:03 | 47.82586 | 9.09015 | 16679 ft | 297 kts | 190° |
| 2026-05-04 21:03 | 47.80556 | 9.08590 | 16056 ft | 293 kts | 190° |
| 2026-05-04 21:03 | 47.78543 | 9.08167 | 15445 ft | 291 kts | 190° |
| 2026-05-04 21:04 | 47.76551 | 9.07750 | 14827 ft | 288 kts | 190° |
| 2026-05-04 21:04 | 47.74579 | 9.07336 | 14240 ft | 285 kts | 190° |
| 2026-05-04 21:04 | 47.72649 | 9.06932 | 13654 ft | 283 kts | 191° |
| 2026-05-04 21:04 | 47.70711 | 9.06529 | 13017 ft | 280 kts | 190° |
| 2026-05-04 21:05 | 47.68794 | 9.06128 | 12404 ft | 277 kts | 190° |
| 2026-05-04 21:05 | 47.68149 | 9.05994 | 12232 ft | 275 kts | 190° |
| 2026-05-04 21:05 | 47.66863 | 9.05725 | 11913 ft | 269 kts | 190° |
| 2026-05-04 21:06 | 47.65013 | 9.05339 | 11272 ft | 269 kts | 189° |
| 2026-05-04 21:06 | 47.63171 | 9.04955 | 10741 ft | 265 kts | 189° |
| 2026-05-04 21:06 | 47.61349 | 9.04575 | 10174 ft | 264 kts | 189° |
| 2026-05-04 21:06 | 47.59567 | 9.04203 | 9627 ft | 261 kts | 189° |
| 2026-05-04 21:07 | 47.57790 | 9.03716 | 8976 ft | 260 kts | 201° |
| 2026-05-04 21:07 | 47.56279 | 9.02349 | 8400 ft | 257 kts | 217° |
| 2026-05-04 21:07 | 47.54842 | 9.00759 | 7768 ft | 259 kts | 216° |
| 2026-05-04 21:07 | 47.53410 | 8.99167 | 7223 ft | 257 kts | 216° |
| 2026-05-04 21:08 | 47.52002 | 8.97588 | 6884 ft | 248 kts | 216° |
| 2026-05-04 21:08 | 47.50672 | 8.96089 | 6720 ft | 232 kts | 216° |
| 2026-05-04 21:08 | 47.49430 | 8.94685 | 6568 ft | 224 kts | 216° |
| 2026-05-04 21:08 | 47.48230 | 8.93275 | 6411 ft | 217 kts | 221° |
| 2026-05-04 21:09 | 47.47157 | 8.91779 | 6274 ft | 208 kts | 222° |
| 2026-05-04 21:09 | 47.46142 | 8.90356 | 6152 ft | 196 kts | 222° |
| 2026-05-04 21:09 | 47.45164 | 8.88989 | 5902 ft | 190 kts | 223° |
| 2026-05-04 21:09 | 47.44242 | 8.87644 | 5682 ft | 184 kts | 232° |
| 2026-05-04 21:10 | 47.43855 | 8.85912 | 5476 ft | 178 kts | 266° |
| 2026-05-04 21:10 | 47.43860 | 8.84076 | 5284 ft | 177 kts | 271° |
| 2026-05-04 21:10 | 47.43922 | 8.82316 | 5069 ft | 171 kts | 273° |
| 2026-05-04 21:10 | 47.44018 | 8.80587 | 4852 ft | 168 kts | 275° |
| 2026-05-04 21:11 | 47.44130 | 8.78876 | 4625 ft | 167 kts | 275° |
| 2026-05-04 21:11 | 47.44246 | 8.77177 | 4391 ft | 166 kts | 276° |
| 2026-05-04 21:11 | 47.44363 | 8.75485 | 4160 ft | 165 kts | 276° |
| 2026-05-04 21:11 | 47.44480 | 8.73805 | 3913 ft | 164 kts | 276° |
| 2026-05-04 21:12 | 47.44598 | 8.72132 | 3684 ft | 164 kts | 275° |
| 2026-05-04 21:12 | 47.44716 | 8.70461 | 3455 ft | 163 kts | 276° |
| 2026-05-04 21:12 | 47.44793 | 8.69361 | 3304 ft | 162 kts | 276° |
| 2026-05-04 21:12 | 47.44947 | 8.67169 | 2986 ft | 162 kts | 276° |
| 2026-05-04 21:13 | 47.45063 | 8.65536 | 2749 ft | 154 kts | 275° |
| 2026-05-04 21:13 | 47.45167 | 8.64043 | 2531 ft | 141 kts | 275° |
| 2026-05-04 21:13 | 47.45265 | 8.62666 | 2317 ft | 139 kts | 275° |
| 2026-05-04 21:13 | 47.45365 | 8.61244 | 2099 ft | 139 kts | 275° |
| 2026-05-04 21:14 | 47.45431 | 8.60303 | 1955 ft | 139 kts | 275° |
| 2026-05-04 21:14 | 47.45534 | 8.58894 | 1747 ft | 139 kts | 276° |
| 2026-05-04 21:14 | 47.45634 | 8.57476 | 1561 ft | 139 kts | 274° |
| 2026-05-04 21:14 | 47.45759 | 8.55656 | 1409 ft | 122 kts | 274° |
| 2026-05-04 21:15 | 47.45806 | 8.54981 | 1403 ft | 72 kts | 276° |
| 2026-05-04 21:15 | 47.45818 | 8.54525 | 1402 ft | 15 kts | 260° |
| 2026-05-04 21:15 | 47.45798 | 8.54411 | 1394 ft | 22 kts | 252° |
| 2026-05-04 21:15 | 47.45711 | 8.54210 | 1387 ft | 13 kts | 200° |
| 2026-05-04 21:16 | 47.45639 | 8.54225 | 1386 ft | 0 kts | 140° |
| 2026-05-04 21:17 | 47.45604 | 8.54316 | 1390 ft | 19 kts | 107° |
| 2026-05-04 21:17 | 47.45572 | 8.54459 | 1396 ft | 24 kts | 108° |
| 2026-05-04 21:17 | 47.45538 | 8.54617 | 1397 ft | 13 kts | 108° |
| 2026-05-04 21:17 | 47.45508 | 8.54751 | 1399 ft | 15 kts | 109° |
| 2026-05-04 21:18 | 47.45473 | 8.54907 | 1402 ft | 17 kts | 109° |
| 2026-05-04 21:18 | 47.45458 | 8.55063 | 1402 ft | 14 kts | 58° |
| 2026-05-04 21:18 | 47.45547 | 8.55125 | 1403 ft | 15 kts | 19° |
| 2026-05-04 21:18 | 47.45651 | 8.55174 | 1402 ft | 13 kts | 13° |
| 2026-05-04 21:19 | 47.45702 | 8.55162 | 1401 ft | 0 kts | 332° |
| 2026-05-04 21:20 | 47.45759 | 8.55119 | 1402 ft | 19 kts | 336° |
| 2026-05-04 21:20 | 47.45850 | 8.55071 | 1404 ft | 3 kts | 8° |
| 2026-05-04 21:20 | 47.45921 | 8.55120 | 1399 ft | 20 kts | 30° |
| 2026-05-04 21:20 | 47.45989 | 8.55230 | 1398 ft | 6 kts | 102° |
| 2026-05-04 21:21 | 47.45997 | 8.55285 | 1406 ft | 4 kts | 32° |
| 2026-05-04 21:21 | 47.46049 | 8.55297 | 1398 ft | 5 kts | 6° |
| 2026-05-04 21:21 | 47.46067 | 8.55300 | 1399 ft | 0 kts | 6° |